createdAt,value
2018-03-21T00:00:40.169Z,133.75
2018-03-21T00:03:06.795Z,128.15
2018-03-21T00:05:33.394Z,158.07
2018-03-21T00:07:59.998Z,114.68
2018-03-21T00:10:26.598Z,109.32
2018-03-21T00:12:53.229Z,150.52
2018-03-21T00:15:19.843Z,134.25
2018-03-21T00:17:46.452Z,155.55
2018-03-21T00:20:13.058Z,137.65
2018-03-21T00:22:40.041Z,128.87
2018-03-21T00:25:06.642Z,122.05
2018-03-21T00:27:33.252Z,134.02
2018-03-21T00:29:59.868Z,115.62
2018-03-21T00:32:26.474Z,129.87
2018-03-21T00:34:53.070Z,87.22
2018-03-21T00:37:19.669Z,109.65
2018-03-21T00:39:46.280Z,100.65
2018-03-21T00:42:12.885Z,130.05
2018-03-21T00:44:39.512Z,101.45
2018-03-21T00:47:06.926Z,123.25
2018-03-21T00:49:33.544Z,127.53
2018-03-21T00:52:00.150Z,136.15
2018-03-21T00:54:26.750Z,101.82
2018-03-21T00:56:53.360Z,111.88
2018-03-21T00:59:19.963Z,100.22
2018-03-21T01:01:46.563Z,120.25
2018-03-21T01:04:13.187Z,121.65
2018-03-21T01:06:39.805Z,134.70
2018-03-21T01:09:06.417Z,114.93
2018-03-21T01:11:33.026Z,107.10
2018-03-21T01:13:59.640Z,106.95
2018-03-21T01:16:26.256Z,130.82
2018-03-21T01:18:52.874Z,169.48
2018-03-21T01:21:19.496Z,158.98
2018-03-21T01:23:46.116Z,212.12
2018-03-21T01:26:12.738Z,165.82
2018-03-21T01:28:39.338Z,145.55
2018-03-21T01:31:05.942Z,125.87
2018-03-21T01:33:32.559Z,135.40
2018-03-21T01:35:59.182Z,163.65
2018-03-21T01:38:25.803Z,176.70
2018-03-21T01:40:52.421Z,164.43
2018-03-21T01:43:19.069Z,170.20
2018-03-21T01:45:45.674Z,112.15
2018-03-21T01:48:12.283Z,99.50
2018-03-21T01:50:38.899Z,153.70
2018-03-21T01:53:12.417Z,165.65
2018-03-21T01:55:39.908Z,115.90
2018-03-21T01:58:06.514Z,152.98
2018-03-21T02:00:33.123Z,136.15
2018-03-21T02:02:59.748Z,120.15
2018-03-21T02:05:26.352Z,124.38
2018-03-21T02:07:52.967Z,184.93
2018-03-21T02:10:19.577Z,168.48
2018-03-21T02:12:46.183Z,144.75
2018-03-21T02:15:12.804Z,218.15
2018-03-21T02:17:39.420Z,161.77
2018-03-21T02:20:06.046Z,139.15
2018-03-21T02:22:33.803Z,140.27
2018-03-21T02:25:00.406Z,141.32
2018-03-21T02:27:27.032Z,163.60
2018-03-21T02:29:53.643Z,165.00
2018-03-21T02:32:20.260Z,190.43
2018-03-21T02:34:46.862Z,121.68
2018-03-21T02:37:13.481Z,131.90
2018-03-21T02:39:40.084Z,136.50
2018-03-21T02:42:06.704Z,160.82
2018-03-21T02:44:33.322Z,142.48
2018-03-21T02:46:59.933Z,158.00
2018-03-21T02:49:26.544Z,149.07
2018-03-21T02:51:53.156Z,125.00
2018-03-21T02:54:19.770Z,114.47
2018-03-21T02:56:46.388Z,100.50
2018-03-21T02:59:13.000Z,147.60
2018-03-21T03:01:39.624Z,143.82
2018-03-21T03:04:06.226Z,159.77
2018-03-21T03:06:32.833Z,177.65
2018-03-21T03:08:59.452Z,164.80
2018-03-21T03:11:26.067Z,129.05
2018-03-21T03:13:52.696Z,226.70
2018-03-21T03:16:19.300Z,195.57
2018-03-21T03:18:45.904Z,217.75
2018-03-21T03:21:12.532Z,170.45
2018-03-21T03:23:39.137Z,171.60
2018-03-21T03:26:05.753Z,238.10
2018-03-21T03:28:32.363Z,165.60
2018-03-21T03:30:58.976Z,194.07
2018-03-21T03:33:25.584Z,184.50
2018-03-21T03:35:52.195Z,213.52
2018-03-21T03:38:18.809Z,198.40
2018-03-21T03:40:45.770Z,178.55
2018-03-21T03:43:12.358Z,175.38
2018-03-21T03:45:38.969Z,140.70
2018-03-21T03:48:05.595Z,159.55
2018-03-21T03:50:32.210Z,168.62
2018-03-21T03:52:59.084Z,237.25
2018-03-21T03:55:25.682Z,192.10
2018-03-21T03:57:52.308Z,187.52
2018-03-21T04:00:18.918Z,182.10
2018-03-21T04:02:45.529Z,197.85
2018-03-21T04:05:12.133Z,190.30
2018-03-21T04:07:38.783Z,187.35
2018-03-21T04:10:06.224Z,160.73
2018-03-21T04:12:32.829Z,177.38
2018-03-21T04:14:59.438Z,190.90
2018-03-21T04:17:26.042Z,165.40
2018-03-21T04:19:52.661Z,199.50
2018-03-21T04:22:19.265Z,137.90
2018-03-21T04:24:45.870Z,140.12
2018-03-21T04:27:12.474Z,211.73
2018-03-21T04:29:39.081Z,196.02
2018-03-21T04:32:05.690Z,230.15
2018-03-21T04:34:32.310Z,209.52
2018-03-21T04:36:58.909Z,232.05
2018-03-21T04:39:25.530Z,201.77
2018-03-21T04:41:52.129Z,203.50
2018-03-21T04:44:18.750Z,209.30
2018-03-21T04:46:45.365Z,207.18
2018-03-21T04:49:11.978Z,228.75
2018-03-21T04:51:38.578Z,221.75
2018-03-21T04:54:05.182Z,175.48
2018-03-21T04:56:31.790Z,161.40
2018-03-21T04:58:58.394Z,246.10
2018-03-21T05:01:25.028Z,163.65
2018-03-21T05:03:51.626Z,196.45
2018-03-21T05:06:18.230Z,204.65
2018-03-21T05:08:44.852Z,187.48
2018-03-21T05:11:11.453Z,236.35
2018-03-21T05:13:38.053Z,228.82
2018-03-21T05:16:04.658Z,201.02
2018-03-21T05:18:31.274Z,213.23
2018-03-21T05:20:57.908Z,192.82
2018-03-21T05:23:24.510Z,182.10
2018-03-21T05:25:51.118Z,223.73
2018-03-21T05:28:17.737Z,197.82
2018-03-21T05:30:44.348Z,223.98
2018-03-21T05:33:10.962Z,191.43
2018-03-21T05:35:37.581Z,200.18
2018-03-21T05:38:04.200Z,239.52
2018-03-21T05:40:30.814Z,240.43
2018-03-21T05:42:57.430Z,169.35
2018-03-21T05:45:24.039Z,203.32
2018-03-21T05:47:50.664Z,185.37
2018-03-21T05:50:17.283Z,220.10
2018-03-21T05:52:43.925Z,193.73
2018-03-21T05:55:11.162Z,213.70
2018-03-21T05:57:38.609Z,183.50
2018-03-21T06:00:05.579Z,201.90
2018-03-21T06:02:34.020Z,231.95
2018-03-21T06:07:32.262Z,142.95
2018-03-21T06:09:58.919Z,165.43
2018-03-21T06:12:25.557Z,155.25
2018-03-21T06:14:52.158Z,198.15
2018-03-21T06:17:18.789Z,140.15
2018-03-21T06:19:48.798Z,161.85
2018-03-21T06:22:16.316Z,131.45
2018-03-21T06:24:44.880Z,130.27
2018-03-21T06:27:11.625Z,106.97
2018-03-21T06:29:38.227Z,107.03
2018-03-21T06:32:04.851Z,85.45
2018-03-21T06:34:31.450Z,67.90
2018-03-21T06:36:58.050Z,33.88
2018-03-21T06:39:24.704Z,32.05
2018-03-21T06:41:51.306Z,41.83
2018-03-21T06:44:17.910Z,30.65
2018-03-21T06:46:44.514Z,39.75
2018-03-21T06:49:11.129Z,26.87
2018-03-21T06:51:37.753Z,22.15
2018-03-21T06:54:04.363Z,24.95
2018-03-21T06:56:30.988Z,17.87
2018-03-21T06:58:57.608Z,9.02
2018-03-21T07:01:24.206Z,10.18
2018-03-21T07:03:50.815Z,17.95
2018-03-21T07:06:17.445Z,6.57
2018-03-21T07:08:44.051Z,11.93
2018-03-21T07:11:11.932Z,16.60
2018-03-21T07:13:44.397Z,8.20
2018-03-21T07:16:17.658Z,7.78
2018-03-21T07:18:44.274Z,19.10
2018-03-21T07:21:10.874Z,17.70
2018-03-21T07:23:37.472Z,5.43
2018-03-21T07:26:04.088Z,8.63
2018-03-21T07:28:30.700Z,6.60
2018-03-21T07:30:57.296Z,5.18
2018-03-21T07:33:23.902Z,9.52
2018-03-21T07:35:50.514Z,6.05
2018-03-21T07:38:17.140Z,11.27
2018-03-21T07:40:43.755Z,17.80
2018-03-21T07:43:10.343Z,13.65
2018-03-21T07:45:37.372Z,6.03
2018-03-21T07:48:03.981Z,13.75
2018-03-21T07:50:30.612Z,9.85
2018-03-21T07:52:57.214Z,6.50
2018-03-21T07:55:23.810Z,7.53
2018-03-21T07:57:50.417Z,10.63
2018-03-21T08:00:17.005Z,10.75
2018-03-21T08:02:43.601Z,13.68
2018-03-21T08:05:10.219Z,6.47
2018-03-21T08:07:36.906Z,5.65
2018-03-21T08:10:03.498Z,13.75
2018-03-21T08:12:30.116Z,18.20
2018-03-21T08:14:56.723Z,5.65
2018-03-21T08:17:23.350Z,10.18
2018-03-21T08:19:50.062Z,14.07
2018-03-21T08:22:16.728Z,5.15
2018-03-21T08:24:43.327Z,7.40
2018-03-21T08:27:09.920Z,16.62
2018-03-21T08:29:36.576Z,6.95
2018-03-21T08:32:03.198Z,8.93
2018-03-21T08:34:29.832Z,11.15
2018-03-21T08:36:56.482Z,5.43
2018-03-21T08:39:23.030Z,7.90
2018-03-21T08:41:49.642Z,13.07
2018-03-21T08:44:16.239Z,11.55
2018-03-21T08:46:42.832Z,5.53
2018-03-21T08:49:09.417Z,8.50
2018-03-21T08:51:36.019Z,8.43
2018-03-21T08:54:02.629Z,5.18
2018-03-21T08:56:29.256Z,8.38
2018-03-21T08:58:55.842Z,3.00
2018-03-21T09:01:22.458Z,4.95
2018-03-21T09:03:49.024Z,6.22
2018-03-21T09:06:15.630Z,11.38
2018-03-21T09:08:42.228Z,5.85
2018-03-21T09:11:08.839Z,11.20
2018-03-21T09:13:35.442Z,7.37
2018-03-21T09:16:02.036Z,5.25
2018-03-21T09:18:28.640Z,12.85
2018-03-21T09:20:55.239Z,6.97
2018-03-21T09:23:21.847Z,4.93
2018-03-21T09:25:48.426Z,4.30
2018-03-21T09:28:15.027Z,8.55
2018-03-21T09:30:41.636Z,6.12
2018-03-21T09:33:08.261Z,5.65
2018-03-21T09:35:34.846Z,6.53
2018-03-21T09:38:01.448Z,12.23
2018-03-21T09:40:28.076Z,4.05
2018-03-21T09:42:54.689Z,3.50
2018-03-21T09:45:21.282Z,6.72
2018-03-21T09:47:47.889Z,4.40
2018-03-21T09:50:14.487Z,5.03
2018-03-21T09:52:41.104Z,20.00
2018-03-21T09:55:07.705Z,5.65
2018-03-21T09:57:34.312Z,4.87
2018-03-21T10:00:01.192Z,6.57
2018-03-21T10:02:27.789Z,3.03
2018-03-21T10:04:54.366Z,6.62
2018-03-21T10:07:21.450Z,6.05
2018-03-21T10:09:48.051Z,3.33
2018-03-21T10:12:14.639Z,3.47
2018-03-21T10:14:41.231Z,13.15
2018-03-21T10:17:07.814Z,4.80
2018-03-21T10:19:34.402Z,5.30
2018-03-21T10:22:01.029Z,2.78
2018-03-21T10:24:27.614Z,4.82
2018-03-21T10:26:54.899Z,10.13
2018-03-21T10:29:21.546Z,5.57
2018-03-21T10:31:48.097Z,4.60
2018-03-21T10:34:14.678Z,5.90
2018-03-21T10:36:41.293Z,8.40
2018-03-21T10:39:07.922Z,4.40
2018-03-21T10:41:34.540Z,5.65
2018-03-21T10:44:01.137Z,4.90
2018-03-21T10:46:27.722Z,5.20
2018-03-21T10:48:54.391Z,4.82
2018-03-21T10:51:20.918Z,6.40
2018-03-21T10:53:47.528Z,5.72
2018-03-21T10:56:14.134Z,11.23
2018-03-21T10:58:40.750Z,6.80
2018-03-21T11:01:13.205Z,8.60
2018-03-21T11:03:39.794Z,5.80
2018-03-21T11:06:06.410Z,7.53
2018-03-21T11:08:33.022Z,5.50
2018-03-21T11:10:59.614Z,5.62
2018-03-21T11:13:26.212Z,4.47
2018-03-21T11:15:52.814Z,11.77
2018-03-21T11:18:19.421Z,5.20
2018-03-21T11:20:46.037Z,3.95
2018-03-21T11:23:12.647Z,3.25
2018-03-21T11:25:39.260Z,2.95
2018-03-21T11:28:05.864Z,3.42
2018-03-21T11:30:32.473Z,6.75
2018-03-21T11:32:59.091Z,2.95
2018-03-21T11:35:25.676Z,4.70
2018-03-21T11:37:52.289Z,1.98
2018-03-21T11:40:18.892Z,3.30
2018-03-21T11:42:45.497Z,3.22
2018-03-21T11:45:12.089Z,3.78
2018-03-21T11:47:38.694Z,6.00
2018-03-21T11:50:05.315Z,4.57
2018-03-21T11:52:32.869Z,5.80
2018-03-21T11:54:59.523Z,5.53
2018-03-21T11:57:26.129Z,7.00
2018-03-21T11:59:52.714Z,8.23
2018-03-21T12:02:19.331Z,14.13
2018-03-21T12:04:45.918Z,5.32
2018-03-21T12:07:12.525Z,5.87
2018-03-21T12:09:39.127Z,5.72
2018-03-21T12:12:05.720Z,6.70
2018-03-21T12:14:32.312Z,7.20
2018-03-21T12:16:58.915Z,5.18
2018-03-21T12:19:25.524Z,6.30
2018-03-21T12:21:52.129Z,5.60
2018-03-21T12:24:18.730Z,8.90
2018-03-21T12:26:45.325Z,8.55
2018-03-21T12:29:11.914Z,6.82
2018-03-21T12:31:38.519Z,6.97
2018-03-21T12:34:05.120Z,5.85
2018-03-21T12:36:31.732Z,7.15
2018-03-21T12:38:58.342Z,5.12
2018-03-21T12:41:24.929Z,5.70
2018-03-21T12:43:51.514Z,4.30
2018-03-21T12:46:18.130Z,8.82
2018-03-21T12:48:44.734Z,7.40
2018-03-21T12:51:11.350Z,5.10
2018-03-21T12:53:37.939Z,2.65
2018-03-21T12:56:04.608Z,3.47
2018-03-21T12:58:31.135Z,4.35
2018-03-21T13:00:58.473Z,6.90
2018-03-21T13:03:25.128Z,5.43
2018-03-21T13:05:51.726Z,4.87
2018-03-21T13:08:18.305Z,4.55
2018-03-21T13:10:44.893Z,7.72
2018-03-21T13:13:11.496Z,5.70
2018-03-21T13:15:38.085Z,5.90
2018-03-21T13:18:04.685Z,5.20
2018-03-21T13:20:31.296Z,6.15
2018-03-21T13:22:57.895Z,5.00
2018-03-21T13:25:24.501Z,4.00
2018-03-21T13:27:51.107Z,6.93
2018-03-21T13:30:17.717Z,8.02
2018-03-21T13:32:44.333Z,5.57
2018-03-21T13:35:11.776Z,8.27
2018-03-21T13:37:38.357Z,7.30
2018-03-21T13:40:04.960Z,6.03
2018-03-21T13:42:31.547Z,8.88
2018-03-21T13:44:58.138Z,8.15
2018-03-21T13:47:24.745Z,5.62
2018-03-21T13:49:51.350Z,9.38
2018-03-21T13:52:17.938Z,10.73
2018-03-21T13:54:44.534Z,9.18
2018-03-21T13:57:12.272Z,11.48
2018-03-21T13:59:39.403Z,12.18
2018-03-21T14:02:06.809Z,15.38
2018-03-21T14:04:33.398Z,11.70
2018-03-21T14:07:00.006Z,7.37
2018-03-21T14:09:26.596Z,7.85
2018-03-21T14:11:53.205Z,13.10
2018-03-21T14:14:19.830Z,16.02
2018-03-21T14:16:46.428Z,12.52
2018-03-21T14:19:13.034Z,12.00
2018-03-21T14:21:39.656Z,11.88
2018-03-21T14:24:06.266Z,8.70
2018-03-21T14:26:32.860Z,24.02
2018-03-21T14:28:59.462Z,14.00
2018-03-21T14:31:26.073Z,9.40
2018-03-21T14:33:52.672Z,13.48
2018-03-21T14:36:19.284Z,16.20
2018-03-21T14:38:45.933Z,9.38
2018-03-21T14:41:12.499Z,18.80
2018-03-21T14:43:39.102Z,10.45
2018-03-21T14:46:05.719Z,12.82
2018-03-21T14:48:32.330Z,13.60
2018-03-21T14:50:58.926Z,22.62
2018-03-21T14:53:25.524Z,9.18
2018-03-21T14:55:53.137Z,9.25
2018-03-21T14:58:20.228Z,11.73
2018-03-21T15:00:46.824Z,13.82
2018-03-21T15:03:13.429Z,10.07
2018-03-21T15:05:40.036Z,10.40
2018-03-21T15:08:06.626Z,7.60
2018-03-21T15:10:33.226Z,14.07
2018-03-21T15:13:00.291Z,24.45
2018-03-21T15:15:26.882Z,9.05
2018-03-21T15:17:53.489Z,13.93
2018-03-21T15:20:20.120Z,9.25
2018-03-21T15:22:46.707Z,7.25
2018-03-21T15:25:13.308Z,8.02
2018-03-21T15:27:39.934Z,6.45
2018-03-21T15:30:06.540Z,6.18
2018-03-21T15:32:33.140Z,7.43
2018-03-21T15:34:59.879Z,8.00
2018-03-21T15:37:26.510Z,10.10
2018-03-21T15:39:53.108Z,9.75
2018-03-21T15:42:19.747Z,12.82
2018-03-21T15:44:46.344Z,7.43
2018-03-21T15:47:12.938Z,13.45
2018-03-21T15:49:39.541Z,21.83
2018-03-21T15:52:06.149Z,12.13
2018-03-21T15:54:32.828Z,14.70
2018-03-21T15:56:59.411Z,10.43
2018-03-21T15:59:26.091Z,18.15
2018-03-21T16:01:53.265Z,16.62
2018-03-21T16:04:19.928Z,11.77
2018-03-21T16:06:46.532Z,12.75
2018-03-21T16:09:13.629Z,14.90
2018-03-21T16:11:40.223Z,10.75
2018-03-21T16:14:06.832Z,16.50
2018-03-21T16:16:33.452Z,15.23
2018-03-21T16:19:00.151Z,15.00
2018-03-21T16:21:26.750Z,12.27
2018-03-21T16:23:54.021Z,20.98
2018-03-21T16:26:20.790Z,21.17
2018-03-21T16:28:47.396Z,10.05
2018-03-21T16:31:14.002Z,13.90
2018-03-21T16:33:40.648Z,11.60
2018-03-21T16:36:07.265Z,14.70
2018-03-21T16:38:33.874Z,13.70
2018-03-21T16:41:01.326Z,13.93
2018-03-21T16:43:27.936Z,13.20
2018-03-21T16:45:54.552Z,15.32
2018-03-21T16:48:21.152Z,21.52
2018-03-21T16:50:47.776Z,25.30
2018-03-21T16:53:14.986Z,32.40
2018-03-21T16:55:41.596Z,25.12
2018-03-21T16:58:08.269Z,26.25
2018-03-21T17:00:34.884Z,29.00
2018-03-21T17:03:01.478Z,27.13
2018-03-21T17:05:28.086Z,25.75
2018-03-21T17:10:27.868Z,22.42
2018-03-21T17:12:54.480Z,20.95
2018-03-21T17:15:21.085Z,31.58
2018-03-21T17:24:32.053Z,40.67
2018-03-21T17:26:58.709Z,48.47
2018-03-21T17:29:25.316Z,40.08
2018-03-21T17:31:51.928Z,62.55
2018-03-21T17:34:18.546Z,53.58
2018-03-21T17:36:45.139Z,50.72
2018-03-21T17:39:11.744Z,37.67
2018-03-21T17:41:38.349Z,69.28
2018-03-21T17:44:04.949Z,55.72
2018-03-21T17:46:31.555Z,52.08
2018-03-21T17:48:58.803Z,50.35
2018-03-21T17:51:25.390Z,59.05
2018-03-21T17:53:51.998Z,64.97
2018-03-21T17:56:18.590Z,61.30
2018-03-21T17:58:45.249Z,48.78
2018-03-21T18:01:11.816Z,77.22
2018-03-21T18:03:38.429Z,92.35
2018-03-21T18:06:05.034Z,54.70
2018-03-21T18:08:31.651Z,41.58
2018-03-21T18:10:58.265Z,55.47
2018-03-21T18:13:24.875Z,57.45
2018-03-21T18:15:51.478Z,51.75
2018-03-21T18:18:18.079Z,65.07
2018-03-21T18:20:44.670Z,88.60
2018-03-21T18:23:11.271Z,98.03
2018-03-21T18:25:37.866Z,66.72
2018-03-21T18:28:04.478Z,68.62
2018-03-21T18:30:31.084Z,73.68
2018-03-21T18:32:57.735Z,81.25
2018-03-21T18:35:25.226Z,61.10
2018-03-21T18:37:51.905Z,70.90
2018-03-21T18:40:18.454Z,92.00
2018-03-21T18:42:45.054Z,97.07
2018-03-21T18:45:11.669Z,99.82
2018-03-21T18:47:38.272Z,88.85
2018-03-21T18:50:04.885Z,63.03
2018-03-21T18:52:31.494Z,83.85
2018-03-21T18:54:58.098Z,87.50
2018-03-21T18:57:24.706Z,84.70
2018-03-21T18:59:51.302Z,72.85
2018-03-21T19:02:18.657Z,82.45
2018-03-21T19:04:45.281Z,69.65
2018-03-21T19:07:11.877Z,78.12
2018-03-21T19:09:38.474Z,90.70
2018-03-21T19:12:05.082Z,81.72
2018-03-21T19:14:31.967Z,83.57
2018-03-21T19:16:58.563Z,104.18
2018-03-21T19:19:25.179Z,110.45
2018-03-21T19:21:51.786Z,108.00
2018-03-21T19:24:18.382Z,99.32
2018-03-21T19:26:44.990Z,116.60
2018-03-21T19:29:11.659Z,99.72
2018-03-21T19:31:38.194Z,93.75
2018-03-21T19:34:04.790Z,91.20
2018-03-21T19:36:31.398Z,104.35
2018-03-21T19:38:57.990Z,92.47
2018-03-21T19:41:24.590Z,81.30
2018-03-21T19:43:51.356Z,71.32
2018-03-21T19:48:51.090Z,72.82
2018-03-21T19:51:17.691Z,94.25
2018-03-21T19:53:44.308Z,91.65
2018-03-21T19:56:10.907Z,85.78
2018-03-21T19:58:38.285Z,73.65
2018-03-21T20:01:04.940Z,61.65
2018-03-21T20:03:31.552Z,104.10
2018-03-21T20:05:58.175Z,111.80
2018-03-21T20:08:24.783Z,101.78
2018-03-21T20:10:51.374Z,105.57
2018-03-21T20:13:20.145Z,92.00
2018-03-21T20:15:46.752Z,100.12
2018-03-21T20:18:13.426Z,111.60
2018-03-21T20:20:39.970Z,104.85
2018-03-21T20:23:06.585Z,124.15
2018-03-21T20:25:33.208Z,120.97
2018-03-21T20:27:59.803Z,120.70
2018-03-21T20:30:26.416Z,119.75
2018-03-21T20:32:53.018Z,128.43
2018-03-21T20:35:19.640Z,124.18
2018-03-21T20:37:46.231Z,98.05
2018-03-21T20:40:12.826Z,94.60
2018-03-21T20:42:39.427Z,102.60
2018-03-21T20:45:06.033Z,93.20
2018-03-21T20:47:32.646Z,79.12
2018-03-21T20:49:59.241Z,89.65
2018-03-21T20:52:25.855Z,80.68
2018-03-21T20:54:53.384Z,109.82
2018-03-21T20:57:19.982Z,103.25
2018-03-21T20:59:46.593Z,121.00
2018-03-21T21:02:13.209Z,153.43
2018-03-21T21:04:39.824Z,127.72
2018-03-21T21:07:06.440Z,110.60
2018-03-21T21:09:33.042Z,141.88
2018-03-21T21:11:59.660Z,106.30
2018-03-21T21:14:26.373Z,142.75
2018-03-21T21:16:52.905Z,124.25
2018-03-21T21:19:19.513Z,111.80
2018-03-21T21:21:46.154Z,102.57
2018-03-21T21:24:12.781Z,84.90
2018-03-21T21:26:39.405Z,146.32
2018-03-21T21:29:06.022Z,123.55
2018-03-21T21:31:32.626Z,157.75
2018-03-21T21:33:59.241Z,122.93
2018-03-21T21:36:25.848Z,94.30
2018-03-21T21:38:52.461Z,122.32
2018-03-21T21:41:19.076Z,101.53
2018-03-21T21:43:45.692Z,150.73
2018-03-21T21:46:12.310Z,113.93
2018-03-21T21:48:38.924Z,126.35
2018-03-21T21:51:05.549Z,106.35
2018-03-21T21:53:32.160Z,104.40
2018-03-21T21:55:58.984Z,159.87
2018-03-21T21:58:25.588Z,121.95
2018-03-21T22:00:52.207Z,137.80
2018-03-21T22:03:19.526Z,129.10
2018-03-21T22:05:46.130Z,118.70
2018-03-21T22:08:12.734Z,97.10
2018-03-21T22:10:39.339Z,127.68
2018-03-21T22:13:05.941Z,94.62
2018-03-21T22:15:32.558Z,114.05
2018-03-21T22:17:59.161Z,106.53
2018-03-21T22:20:25.788Z,96.45
2018-03-21T22:22:52.381Z,79.87
2018-03-21T22:25:18.976Z,80.50
2018-03-21T22:27:45.582Z,97.35
2018-03-21T22:30:12.173Z,81.12
2018-03-21T22:32:38.775Z,87.60
2018-03-21T22:35:05.383Z,103.53
2018-03-21T22:37:31.992Z,97.80
2018-03-21T22:39:58.594Z,122.55
2018-03-21T22:42:25.196Z,88.45
2018-03-21T22:44:51.794Z,96.85
2018-03-21T22:47:18.385Z,96.53
2018-03-21T22:49:44.987Z,77.45
2018-03-21T22:52:11.609Z,93.78
2018-03-21T22:54:38.222Z,132.80
2018-03-21T22:57:04.826Z,128.27
2018-03-21T22:59:31.422Z,127.47
2018-03-21T23:01:58.046Z,116.88
2018-03-21T23:04:24.646Z,89.40
2018-03-21T23:06:51.242Z,97.57
2018-03-21T23:09:17.840Z,91.82
2018-03-21T23:11:44.449Z,86.28
2018-03-21T23:14:11.570Z,82.88
2018-03-21T23:16:38.212Z,89.20
2018-03-21T23:19:04.816Z,100.53
2018-03-21T23:21:31.448Z,107.85
2018-03-21T23:23:58.062Z,102.45
2018-03-21T23:26:24.676Z,117.85
2018-03-21T23:28:51.412Z,135.32
2018-03-21T23:31:18.042Z,128.70
2018-03-21T23:33:44.637Z,78.30
2018-03-21T23:36:11.259Z,97.35
2018-03-21T23:38:37.865Z,149.90
2018-03-21T23:41:04.462Z,94.43
2018-03-21T23:43:31.060Z,90.30
2018-03-21T23:45:57.654Z,94.07
2018-03-21T23:48:24.268Z,93.47
2018-03-21T23:50:50.876Z,80.32
2018-03-21T23:53:17.567Z,140.18
2018-03-21T23:55:44.158Z,96.30
2018-03-21T23:58:10.773Z,89.55
